createdAt,value
2022-11-28T00:01:30.166Z,4.01
2022-11-28T00:03:58.233Z,4.01
2022-11-28T00:06:27.414Z,4.01
2022-11-28T00:08:58.715Z,4.00
2022-11-28T00:11:27.083Z,3.97
2022-11-28T00:13:55.484Z,3.94
2022-11-28T00:16:24.515Z,3.88
2022-11-28T00:18:54.554Z,3.82
2022-11-28T00:21:23.473Z,3.74
2022-11-28T00:23:52.963Z,3.69
2022-11-28T00:26:26.990Z,3.64
2022-11-28T00:28:56.596Z,3.59
2022-11-28T00:31:26.940Z,3.52
2022-11-28T00:33:55.093Z,3.46
2022-11-28T00:36:23.977Z,3.42
2022-11-28T00:38:52.242Z,3.37
2022-11-28T00:41:23.866Z,3.32
2022-11-28T00:43:52.410Z,3.26
2022-11-28T00:46:22.004Z,3.21
2022-11-28T00:48:50.407Z,3.16
2022-11-28T00:51:24.015Z,3.11
2022-11-28T00:53:54.317Z,3.08
2022-11-28T00:56:25.167Z,3.02
2022-11-28T00:58:53.354Z,2.97
2022-11-28T01:01:44.172Z,2.92
2022-11-28T01:04:15.505Z,2.84
2022-11-28T01:06:50.173Z,2.78
2022-11-28T01:09:23.032Z,2.71
2022-11-28T01:11:52.838Z,2.66
2022-11-28T01:14:23.603Z,2.60
2022-11-28T01:16:53.546Z,2.56
2022-11-28T01:19:23.005Z,2.53
2022-11-28T01:21:50.826Z,2.48
2022-11-28T01:24:19.547Z,2.45
2022-11-28T01:26:47.298Z,2.43
2022-11-28T01:29:16.728Z,2.42
2022-11-28T01:31:44.604Z,2.43
2022-11-28T01:34:12.433Z,2.44
2022-11-28T01:36:40.092Z,2.45
2022-11-28T01:39:07.913Z,2.47
2022-11-28T01:41:36.049Z,2.48
2022-11-28T01:44:29.662Z,2.47
2022-11-28T01:46:58.642Z,2.47
2022-11-28T01:49:32.064Z,2.47
2022-11-28T01:52:04.987Z,2.48
2022-11-28T01:54:34.492Z,2.47
2022-11-28T01:57:06.290Z,2.47
2022-11-28T01:59:37.737Z,2.45
2022-11-28T02:02:09.667Z,2.46
2022-11-28T02:04:37.617Z,2.46
2022-11-28T02:07:06.133Z,2.44
2022-11-28T02:09:34.004Z,2.46
2022-11-28T02:12:20.316Z,2.47
2022-11-28T02:15:03.501Z,2.50
2022-11-28T02:18:05.269Z,2.52
2022-11-28T02:20:42.670Z,2.50
2022-11-28T02:23:28.819Z,2.48
2022-11-28T02:26:26.076Z,2.46
2022-11-28T02:29:41.924Z,2.47
2022-11-28T02:32:09.848Z,2.44
2022-11-28T02:34:46.929Z,2.43
2022-11-28T02:37:25.429Z,2.42
2022-11-28T02:40:06.669Z,2.42
2022-11-28T02:42:50.981Z,2.43
2022-11-28T02:45:31.793Z,2.45
2022-11-28T02:48:04.891Z,2.46
2022-11-28T02:50:42.160Z,2.49
2022-11-28T02:53:14.268Z,2.54
2022-11-28T02:55:44.193Z,2.56
2022-11-28T02:58:13.029Z,2.57
2022-11-28T03:00:43.882Z,2.56
2022-11-28T03:03:40.455Z,2.55
2022-11-28T03:06:31.282Z,2.56
2022-11-28T03:09:09.905Z,2.57
2022-11-28T03:12:19.098Z,2.59
2022-11-28T03:14:58.779Z,2.56
2022-11-28T03:17:52.897Z,2.53
2022-11-28T03:20:42.833Z,2.52
2022-11-28T03:23:18.313Z,2.54
2022-11-28T03:26:10.711Z,2.52
2022-11-28T03:29:01.913Z,2.51
2022-11-28T03:31:41.331Z,2.52
2022-11-28T03:34:14.123Z,2.47
2022-11-28T03:36:47.702Z,2.46
2022-11-28T03:39:20.155Z,2.48
2022-11-28T03:42:10.258Z,2.48
2022-11-28T03:45:02.021Z,2.48
2022-11-28T03:47:36.806Z,2.45
2022-11-28T03:50:11.417Z,2.44
2022-11-28T03:52:49.626Z,2.44
2022-11-28T03:55:32.824Z,2.43
2022-11-28T03:58:09.910Z,2.42
2022-11-28T04:00:49.565Z,2.46
2022-11-28T04:03:31.763Z,2.50
2022-11-28T04:06:04.499Z,2.53
2022-11-28T04:08:58.715Z,2.55
2022-11-28T04:11:35.528Z,2.59
2022-11-28T04:14:18.056Z,2.64
2022-11-28T04:16:54.059Z,2.66
2022-11-28T04:19:28.793Z,2.66
2022-11-28T04:22:18.207Z,2.67
2022-11-28T04:24:49.237Z,2.67
2022-11-28T04:27:23.396Z,2.70
2022-11-28T04:29:56.203Z,2.69
2022-11-28T04:32:27.072Z,2.67
2022-11-28T04:35:04.848Z,2.62
2022-11-28T04:37:34.624Z,2.57
2022-11-28T04:40:03.799Z,2.55
2022-11-28T04:42:37.789Z,2.56
2022-11-28T04:45:16.211Z,2.58
2022-11-28T04:47:45.310Z,2.61
2022-11-28T04:50:13.663Z,2.64
2022-11-28T04:52:56.818Z,2.66
2022-11-28T04:55:43.493Z,2.67
2022-11-28T04:58:14.476Z,2.65
2022-11-28T05:00:44.177Z,2.63
2022-11-28T05:03:12.192Z,2.63
2022-11-28T05:05:46.432Z,2.63
2022-11-28T05:08:15.013Z,2.65
2022-11-28T05:10:42.734Z,2.66
2022-11-28T05:13:10.545Z,2.68
2022-11-28T05:15:38.486Z,2.69
2022-11-28T05:18:06.291Z,2.71
2022-11-28T05:20:34.447Z,2.72
2022-11-28T05:23:02.341Z,2.74
2022-11-28T05:25:30.073Z,2.78
2022-11-28T05:27:57.954Z,2.82
2022-11-28T05:30:25.882Z,2.84
2022-11-28T05:32:53.663Z,2.80
2022-11-28T05:35:21.486Z,2.79
2022-11-28T05:37:49.362Z,2.77
2022-11-28T05:40:17.106Z,2.76
2022-11-28T05:42:45.143Z,2.76
2022-11-28T05:45:13.024Z,2.72
2022-11-28T05:47:40.884Z,2.72
2022-11-28T05:50:09.103Z,2.70
2022-11-28T05:52:36.928Z,2.71
2022-11-28T05:55:05.050Z,2.71
2022-11-28T05:57:33.300Z,2.71
2022-11-28T06:00:01.250Z,2.70
2022-11-28T06:02:39.756Z,2.70
2022-11-28T06:05:34.804Z,2.70
2022-11-28T06:07:55.931Z,2.69
2022-11-28T06:10:24.078Z,2.70
2022-11-28T06:12:51.723Z,2.70
2022-11-28T06:15:19.857Z,2.70
2022-11-28T06:17:47.762Z,2.71
2022-11-28T06:20:15.488Z,2.70
2022-11-28T06:22:43.392Z,2.69
2022-11-28T06:25:11.344Z,2.69
2022-11-28T06:27:38.989Z,2.70
2022-11-28T06:30:07.683Z,2.75
2022-11-28T06:32:35.605Z,2.78
2022-11-28T06:35:03.477Z,2.80
2022-11-28T06:37:31.400Z,2.83
2022-11-28T06:39:59.505Z,2.86
2022-11-28T06:42:27.214Z,2.93
2022-11-28T06:44:55.275Z,2.96
2022-11-28T06:47:23.276Z,2.98
2022-11-28T06:49:51.001Z,3.00
2022-11-28T06:52:19.049Z,3.01
2022-11-28T06:54:47.045Z,3.03
2022-11-28T06:57:14.803Z,3.04
2022-11-28T06:59:42.800Z,3.03
2022-11-28T07:02:11.819Z,3.07
2022-11-28T07:04:39.778Z,3.12
2022-11-28T07:07:09.247Z,3.15
2022-11-28T07:09:39.349Z,3.19
2022-11-28T07:12:07.343Z,3.22
2022-11-28T07:14:35.350Z,3.26
2022-11-28T07:17:03.162Z,3.27
2022-11-28T07:19:30.836Z,3.34
2022-11-28T07:21:58.789Z,3.36
2022-11-28T07:24:26.812Z,3.42
2022-11-28T07:26:54.522Z,3.46
2022-11-28T07:29:24.645Z,3.49
2022-11-28T07:31:53.741Z,3.51
2022-11-28T07:34:21.644Z,3.56
2022-11-28T07:36:49.614Z,3.60
2022-11-28T07:39:17.667Z,3.62
2022-11-28T07:41:45.667Z,3.63
2022-11-28T07:44:17.892Z,3.64
2022-11-28T07:46:46.464Z,3.64
2022-11-28T07:49:15.451Z,3.62
2022-11-28T07:51:43.414Z,3.60
2022-11-28T07:54:11.479Z,3.59
2022-11-28T07:57:10.818Z,3.59
2022-11-28T07:59:35.909Z,3.64
2022-11-28T08:02:04.310Z,3.69
2022-11-28T08:04:54.933Z,3.73
2022-11-28T08:07:23.424Z,3.76
2022-11-28T08:09:52.050Z,3.79
2022-11-28T08:12:20.041Z,3.81
2022-11-28T08:14:47.954Z,3.88
2022-11-28T08:17:18.869Z,3.93
2022-11-28T08:19:46.582Z,3.96
2022-11-28T08:22:14.393Z,4.01
2022-11-28T08:24:45.674Z,4.06
2022-11-28T08:27:13.524Z,4.10
2022-11-28T08:29:41.685Z,4.15
2022-11-28T08:32:10.012Z,4.24
2022-11-28T08:34:37.780Z,4.29
2022-11-28T08:37:05.824Z,4.32
2022-11-28T08:39:34.191Z,4.36
2022-11-28T08:42:01.842Z,4.40
2022-11-28T08:44:30.730Z,4.44
2022-11-28T08:46:59.007Z,4.48
2022-11-28T08:49:26.806Z,4.51
2022-11-28T08:51:54.726Z,4.55
2022-11-28T08:54:30.233Z,4.57
2022-11-28T08:56:59.139Z,4.61
2022-11-28T08:59:27.278Z,4.62
2022-11-28T09:01:55.480Z,4.65
2022-11-28T09:04:24.025Z,4.66
2022-11-28T09:06:52.753Z,4.66
2022-11-28T09:09:20.536Z,4.67
2022-11-28T09:11:48.639Z,4.68
2022-11-28T09:14:16.622Z,4.67
2022-11-28T09:16:45.791Z,4.73
2022-11-28T09:19:15.936Z,4.81
2022-11-28T09:21:43.975Z,4.90
2022-11-28T09:24:14.063Z,4.97
2022-11-28T09:26:42.864Z,5.01
2022-11-28T09:29:11.017Z,5.02
2022-11-28T09:31:41.988Z,5.03
2022-11-28T09:34:14.386Z,5.04
2022-11-28T09:36:42.165Z,5.05
2022-11-28T09:39:09.934Z,5.09
2022-11-28T09:41:49.468Z,5.14
2022-11-28T09:44:44.801Z,5.20
2022-11-28T09:47:27.733Z,5.25
2022-11-28T09:49:58.268Z,5.31
2022-11-28T09:52:41.546Z,5.34
2022-11-28T09:55:35.180Z,5.34
2022-11-28T09:58:12.839Z,5.35
2022-11-28T10:01:01.780Z,5.33
2022-11-28T10:03:36.890Z,5.34
2022-11-28T10:06:36.622Z,5.39
2022-11-28T10:09:40.639Z,5.46
2022-11-28T10:12:17.586Z,5.56
2022-11-28T10:15:03.595Z,5.60
2022-11-28T10:17:50.324Z,5.61
2022-11-28T10:20:25.682Z,5.56
2022-11-28T10:22:57.877Z,5.52
2022-11-28T10:25:33.678Z,5.51
2022-11-28T10:28:05.797Z,5.55
2022-11-28T10:30:40.079Z,5.59
2022-11-28T10:33:33.759Z,5.68
2022-11-28T10:36:03.356Z,5.80
2022-11-28T10:38:34.572Z,5.91
2022-11-28T10:41:17.446Z,6.01
2022-11-28T10:44:04.114Z,6.11
2022-11-28T10:47:00.547Z,6.23
2022-11-28T10:49:50.046Z,6.36
2022-11-28T10:52:23.962Z,6.49
2022-11-28T10:55:00.752Z,6.59
2022-11-28T10:58:00.744Z,6.64
2022-11-28T11:00:29.127Z,6.71
2022-11-28T11:03:02.362Z,6.71
2022-11-28T11:05:35.953Z,6.70
2022-11-28T11:08:12.862Z,6.67
2022-11-28T11:10:52.974Z,6.67
2022-11-28T11:13:33.282Z,6.72
2022-11-28T11:16:07.229Z,6.79
2022-11-28T11:18:48.641Z,6.84
2022-11-28T11:21:25.016Z,6.83
2022-11-28T11:24:17.178Z,6.89
2022-11-28T11:26:48.294Z,6.93
2022-11-28T11:29:32.895Z,6.97
2022-11-28T11:32:06.057Z,6.99
2022-11-28T11:34:45.896Z,7.00
2022-11-28T11:37:29.122Z,7.05
2022-11-28T11:39:57.703Z,7.06
2022-11-28T11:42:30.784Z,7.06
2022-11-28T11:45:24.737Z,7.06
2022-11-28T11:47:53.243Z,7.05
2022-11-28T11:50:24.005Z,7.07
2022-11-28T11:53:19.132Z,7.10
2022-11-28T11:55:52.796Z,7.12
2022-11-28T11:58:25.377Z,7.14
2022-11-28T12:00:58.441Z,7.18
2022-11-28T12:03:33.233Z,7.20
2022-11-28T12:06:14.192Z,7.25
2022-11-28T12:09:19.578Z,7.30
2022-11-28T12:11:55.007Z,7.28
2022-11-28T12:14:34.849Z,7.27
2022-11-28T12:17:48.861Z,7.26
2022-11-28T12:20:39.709Z,7.22
2022-11-28T12:23:17.365Z,7.18
2022-11-28T12:25:59.648Z,7.15
2022-11-28T12:28:35.135Z,7.12
2022-11-28T12:31:23.152Z,7.10
2022-11-28T12:34:16.568Z,7.11
2022-11-28T12:36:54.884Z,7.08
2022-11-28T12:39:41.312Z,7.07
2022-11-28T12:42:34.356Z,7.07
2022-11-28T12:45:33.347Z,7.05
2022-11-28T12:48:22.715Z,7.02
2022-11-28T12:51:01.047Z,6.96
2022-11-28T12:53:52.820Z,6.89
2022-11-28T12:56:49.428Z,6.79
2022-11-28T12:59:50.816Z,6.75
2022-11-28T13:02:27.898Z,6.69
2022-11-28T13:05:19.988Z,6.61
2022-11-28T13:07:58.091Z,6.52
2022-11-28T13:11:10.480Z,6.49
2022-11-28T13:14:22.332Z,6.41
2022-11-28T13:16:52.586Z,6.35
2022-11-28T13:19:56.040Z,6.30
2022-11-28T13:22:29.627Z,6.24
2022-11-28T13:25:22.163Z,6.21
2022-11-28T13:28:28.790Z,6.18
2022-11-28T13:31:20.136Z,6.14
2022-11-28T13:33:53.582Z,6.10
2022-11-28T13:39:48.033Z,5.98
2022-11-28T13:51:32.063Z,5.74
2022-11-28T13:54:23.746Z,5.71
2022-11-28T13:57:21.815Z,5.71
2022-11-28T14:00:21.845Z,5.69
2022-11-28T14:02:55.757Z,5.65
2022-11-28T14:05:41.560Z,5.62
2022-11-28T14:08:29.192Z,5.57
2022-11-28T14:11:21.451Z,5.51
2022-11-28T14:14:13.299Z,5.46
2022-11-28T14:16:52.137Z,5.39
2022-11-28T14:19:49.405Z,5.31
2022-11-28T14:22:26.946Z,5.22
2022-11-28T14:25:24.162Z,5.16
2022-11-28T14:27:59.408Z,5.11
2022-11-28T14:30:37.172Z,5.05
2022-11-28T14:33:17.301Z,4.98
2022-11-28T14:35:54.641Z,4.92
2022-11-28T14:38:35.792Z,4.85
2022-11-28T14:41:11.971Z,4.79
2022-11-28T14:43:41.606Z,4.71
2022-11-28T14:46:16.629Z,4.65
2022-11-28T14:49:01.492Z,4.61
2022-11-28T14:51:47.405Z,4.53
2022-11-28T14:54:34.432Z,4.50
2022-11-28T14:57:10.553Z,4.49
2022-11-28T14:59:40.256Z,4.49
2022-11-28T15:02:13.070Z,4.48
2022-11-28T15:05:20.447Z,4.48
2022-11-28T15:08:48.429Z,4.50
2022-11-28T15:11:22.980Z,4.52
2022-11-28T15:14:19.710Z,4.53
2022-11-28T15:16:51.234Z,4.55
2022-11-28T15:19:25.719Z,4.56
2022-11-28T15:21:55.142Z,4.57
2022-11-28T15:24:31.885Z,4.57
2022-11-28T15:27:09.444Z,4.57
2022-11-28T15:29:37.304Z,4.56
2022-11-28T15:32:05.771Z,4.54
2022-11-28T15:34:36.710Z,4.54
2022-11-28T15:37:07.567Z,4.52
2022-11-28T15:39:42.087Z,4.49
2022-11-28T15:42:22.427Z,4.47
2022-11-28T15:44:59.945Z,4.46
2022-11-28T15:47:28.669Z,4.46
2022-11-28T15:50:00.604Z,4.48
2022-11-28T15:52:28.900Z,4.52
2022-11-28T15:54:56.675Z,4.55
2022-11-28T15:57:28.387Z,4.57
2022-11-28T15:59:56.971Z,4.59
2022-11-28T16:02:30.491Z,4.59
2022-11-28T16:05:05.599Z,4.59
2022-11-28T16:07:39.030Z,4.59
2022-11-28T16:10:37.109Z,4.59
2022-11-28T16:13:14.138Z,4.59
2022-11-28T16:15:49.893Z,4.61
2022-11-28T16:18:20.003Z,4.62
2022-11-28T16:20:48.153Z,4.61
2022-11-28T16:23:20.364Z,4.62
2022-11-28T16:26:19.444Z,4.63
2022-11-28T16:29:17.039Z,4.63
2022-11-28T16:31:45.386Z,4.66
2022-11-28T16:34:14.871Z,4.67
2022-11-28T16:36:46.821Z,4.69
2022-11-28T16:39:16.946Z,4.72
2022-11-28T16:42:15.920Z,4.72
2022-11-28T16:44:44.363Z,4.71
2022-11-28T16:47:30.620Z,4.70
2022-11-28T16:50:05.235Z,4.70
2022-11-28T16:52:33.151Z,4.69
2022-11-28T16:55:01.081Z,4.67
2022-11-28T16:57:46.088Z,4.66
2022-11-28T17:00:14.124Z,4.65
2022-11-28T17:02:41.859Z,4.66
2022-11-28T17:05:09.991Z,4.65
2022-11-28T17:07:38.359Z,4.68
2022-11-28T17:10:06.599Z,4.69
2022-11-28T17:12:38.957Z,4.68
2022-11-28T17:15:14.167Z,4.65
2022-11-28T17:17:42.241Z,4.60
2022-11-28T17:20:12.244Z,4.57
2022-11-28T17:22:46.955Z,4.53
2022-11-28T17:25:17.800Z,4.49
2022-11-28T17:27:47.839Z,4.47
2022-11-28T17:30:18.249Z,4.45
2022-11-28T17:32:49.224Z,4.45
2022-11-28T17:35:22.381Z,4.46
2022-11-28T17:37:50.859Z,4.46
2022-11-28T17:40:34.031Z,4.45
2022-11-28T17:43:03.538Z,4.44
2022-11-28T17:45:34.973Z,4.43
2022-11-28T17:48:03.264Z,4.40
2022-11-28T17:50:31.700Z,4.39
2022-11-28T17:52:59.636Z,4.40
2022-11-28T17:55:28.977Z,4.41
2022-11-28T17:57:57.115Z,4.42
2022-11-28T18:00:25.279Z,4.40
2022-11-28T18:02:53.398Z,4.37
2022-11-28T18:05:21.566Z,4.35
2022-11-28T18:07:49.999Z,4.32
2022-11-28T18:10:18.354Z,4.30
2022-11-28T18:12:46.281Z,4.29
2022-11-28T18:15:13.977Z,4.30
2022-11-28T18:17:42.202Z,4.30
2022-11-28T18:20:11.307Z,4.29
2022-11-28T18:22:39.303Z,4.29
2022-11-28T18:25:08.832Z,4.29
2022-11-28T18:27:36.801Z,4.30
2022-11-28T18:30:05.227Z,4.29
2022-11-28T18:32:33.526Z,4.26
2022-11-28T18:35:01.301Z,4.23
2022-11-28T18:37:30.097Z,4.23
2022-11-28T18:39:58.409Z,4.24
2022-11-28T18:42:27.665Z,4.23
2022-11-28T18:44:55.553Z,4.22
2022-11-28T18:47:24.939Z,4.18
2022-11-28T18:49:54.415Z,4.16
2022-11-28T18:52:22.424Z,4.14
2022-11-28T18:54:50.413Z,4.09
2022-11-28T18:57:18.343Z,4.04
2022-11-28T18:59:52.918Z,3.97
2022-11-28T19:02:23.705Z,3.93
2022-11-28T19:04:52.796Z,3.89
2022-11-28T19:07:20.814Z,3.84
2022-11-28T19:09:49.264Z,3.81
2022-11-28T19:12:18.957Z,3.81
2022-11-28T19:14:46.812Z,3.80
2022-11-28T19:17:14.868Z,3.78
2022-11-28T19:19:44.417Z,3.77
2022-11-28T19:22:12.331Z,3.74
2022-11-28T19:24:40.367Z,3.73
2022-11-28T19:27:13.841Z,3.73
2022-11-28T19:29:43.283Z,3.74
2022-11-28T19:32:12.628Z,3.75
2022-11-28T19:34:41.252Z,3.75
2022-11-28T19:37:09.332Z,3.73
2022-11-28T19:39:37.423Z,3.71
2022-11-28T19:42:05.249Z,3.70
2022-11-28T19:44:33.337Z,3.69
2022-11-28T19:47:01.448Z,3.68
2022-11-28T19:49:29.949Z,3.67
2022-11-28T19:51:58.461Z,3.66
2022-11-28T19:54:26.881Z,3.65
2022-11-28T19:56:56.493Z,3.63
2022-11-28T19:59:24.679Z,3.62
2022-11-28T20:01:53.878Z,3.60
2022-11-28T20:04:22.876Z,3.61
2022-11-28T20:06:51.241Z,3.61
2022-11-28T20:09:19.454Z,3.59
2022-11-28T20:11:48.354Z,3.57
2022-11-28T20:14:18.721Z,3.53
2022-11-28T20:16:47.140Z,3.50
2022-11-28T20:19:17.767Z,3.49
2022-11-28T20:21:46.690Z,3.49
2022-11-28T20:24:15.673Z,3.49
2022-11-28T20:26:45.541Z,3.50
2022-11-28T20:29:16.770Z,3.50
2022-11-28T20:31:47.504Z,3.49
2022-11-28T20:34:19.346Z,3.47
2022-11-28T20:36:53.644Z,3.44
2022-11-28T20:39:21.929Z,3.41
2022-11-28T20:41:49.656Z,3.38
2022-11-28T20:44:18.822Z,3.37
2022-11-28T20:46:48.813Z,3.36
2022-11-28T20:49:16.851Z,3.38
2022-11-28T20:51:45.136Z,3.38
2022-11-28T20:54:14.167Z,3.37
2022-11-28T20:57:19.293Z,3.37
2022-11-28T20:59:32.990Z,3.36
2022-11-28T21:02:01.080Z,3.38
2022-11-28T21:04:28.846Z,3.38
2022-11-28T21:06:57.097Z,3.38
2022-11-28T21:09:24.861Z,3.38
2022-11-28T21:11:58.091Z,3.38
2022-11-28T21:14:28.691Z,3.40
2022-11-28T21:16:58.107Z,3.41
2022-11-28T21:19:25.975Z,3.40
2022-11-28T21:21:54.188Z,3.37
2022-11-28T21:24:21.963Z,3.35
2022-11-28T21:26:53.840Z,3.34
2022-11-28T21:29:24.033Z,3.34
2022-11-28T21:31:53.131Z,3.34
2022-11-28T21:34:22.372Z,3.35
2022-11-28T21:36:50.732Z,3.35
2022-11-28T21:39:20.384Z,3.34
2022-11-28T21:41:48.431Z,3.34
2022-11-28T21:44:16.629Z,3.34
2022-11-28T21:46:44.578Z,3.33
2022-11-28T21:49:12.722Z,3.31
2022-11-28T21:51:41.626Z,3.31
2022-11-28T21:54:12.773Z,3.28
2022-11-28T21:56:40.942Z,3.28
2022-11-28T21:59:09.551Z,3.32
2022-11-28T22:01:37.410Z,3.33
2022-11-28T22:04:06.315Z,3.33
2022-11-28T22:06:34.245Z,3.34
2022-11-28T22:09:08.980Z,3.32
2022-11-28T22:11:39.104Z,3.34
2022-11-28T22:14:06.886Z,3.35
2022-11-28T22:16:34.720Z,3.33
2022-11-28T22:19:04.184Z,3.34
2022-11-28T22:24:20.392Z,3.36
2022-11-28T22:26:49.508Z,3.36
2022-11-28T22:29:18.486Z,3.38
2022-11-28T22:31:47.393Z,3.40
2022-11-28T22:34:15.392Z,3.41
2022-11-28T22:36:43.380Z,3.42
2022-11-28T22:39:11.932Z,3.39
2022-11-28T22:41:39.944Z,3.39
2022-11-28T22:44:11.562Z,3.35
2022-11-28T22:46:39.882Z,3.35
2022-11-28T22:49:10.674Z,3.34
2022-11-28T22:51:39.951Z,3.34
2022-11-28T22:54:11.204Z,3.34
2022-11-28T22:56:40.836Z,3.35
2022-11-28T22:59:16.554Z,3.34
2022-11-28T23:01:44.554Z,3.34
2022-11-28T23:04:13.191Z,3.34
2022-11-28T23:06:41.064Z,3.33
2022-11-28T23:09:11.973Z,3.32
2022-11-28T23:11:40.528Z,3.32
2022-11-28T23:14:10.066Z,3.33
2022-11-28T23:16:39.160Z,3.34
2022-11-28T23:19:13.574Z,3.36
2022-11-28T23:21:43.706Z,3.35
2022-11-28T23:24:17.985Z,3.33
2022-11-28T23:26:48.149Z,3.32
2022-11-28T23:29:16.739Z,3.30
2022-11-28T23:31:47.066Z,3.29
2022-11-28T23:34:15.481Z,3.29
2022-11-28T23:36:46.710Z,3.31
2022-11-28T23:39:19.889Z,3.34
2022-11-28T23:41:49.044Z,3.32
2022-11-28T23:44:18.722Z,3.30
2022-11-28T23:46:48.276Z,3.30
2022-11-28T23:49:16.571Z,3.29
2022-11-28T23:51:44.476Z,3.28
2022-11-28T23:54:13.059Z,3.26
2022-11-28T23:56:41.857Z,3.26
2022-11-28T23:59:11.663Z,3.27
